Time;durP1;ratioP1;P1;durP2;ratioP2;P2;SDS_P1;SDS_P2;PMS_P1;PMS_P2;Temp;Humidity;BMP_temperature;BMP_pressure;BME280_temperature;BME280_humidity;BME280_pressure;Samples;Min_cycle;Max_cycle;Signal;HPM_P1;HPM_P2
2022/07/17 00:04:45;;;;;;;7.32;6.47;;;;;;;;;;10388488;28;20913;-86
2022/07/17 00:09:48;;;;;;;7.30;6.60;;;;;;;;;;10391801;28;20417;-85
2022/07/17 00:14:50;;;;;;;8.85;7.30;;;;;;;;;;10383621;28;20914;-84
2022/07/17 00:19:52;;;;;;;9.45;7.18;;;;;;;;;;10384660;28;20423;-84
2022/07/17 00:24:55;;;;;;;7.45;6.75;;;;;;;;;;10381043;28;20974;-85
2022/07/17 00:29:57;;;;;;;7.25;6.50;;;;;;;;;;10378191;28;20430;-85
2022/07/17 00:34:59;;;;;;;7.18;6.47;;;;;;;;;;10379046;28;20847;-84
2022/07/17 00:40:03;;;;;;;7.33;6.57;;;;;;;;;;10383058;28;20501;-85
2022/07/17 00:45:05;;;;;;;7.18;6.40;;;;;;;;;;10380265;28;20433;-84
2022/07/17 00:50:08;;;;;;;7.22;6.25;;;;;;;;;;10380862;28;20504;-84
2022/07/17 00:55:13;;;;;;;7.82;6.40;;;;;;;;;;10385917;28;20508;-84
2022/07/17 01:00:16;;;;;;;7.43;6.72;;;;;;;;;;10401863;28;20401;-84
2022/07/17 01:05:19;;;;;;;6.87;6.17;;;;;;;;;;10395923;28;20949;-85
2022/07/17 01:10:22;;;;;;;6.72;6.00;;;;;;;;;;10398487;28;20906;-84
2022/07/17 01:15:24;;;;;;;6.90;6.10;;;;;;;;;;10401628;28;20484;-84
2022/07/17 01:20:26;;;;;;;6.93;5.45;;;;;;;;;;10397272;28;20425;-84
2022/07/17 01:25:29;;;;;;;6.03;5.53;;;;;;;;;;10400462;28;20519;-85
2022/07/17 01:30:32;;;;;;;6.80;5.40;;;;;;;;;;10399593;28;20409;-84
2022/07/17 01:35:34;;;;;;;6.70;5.20;;;;;;;;;;10400651;28;20411;-85
2022/07/17 01:40:37;;;;;;;6.18;5.45;;;;;;;;;;10399142;28;20421;-84
2022/07/17 01:45:39;;;;;;;5.97;4.77;;;;;;;;;;10398482;28;20492;-85
2022/07/17 01:50:41;;;;;;;6.13;5.20;;;;;;;;;;10394037;28;20438;-84
2022/07/17 01:55:44;;;;;;;5.65;4.82;;;;;;;;;;10399908;28;20488;-85
2022/07/17 02:00:46;;;;;;;4.93;4.43;;;;;;;;;;10391509;28;20410;-85
2022/07/17 02:05:48;;;;;;;6.15;4.75;;;;;;;;;;10386750;28;20482;-85
2022/07/17 02:10:51;;;;;;;5.80;4.70;;;;;;;;;;10386128;28;20486;-83
2022/07/17 02:15:53;;;;;;;5.32;4.50;;;;;;;;;;10387287;28;20486;-85
2022/07/17 02:20:55;;;;;;;4.63;4.20;;;;;;;;;;10390047;28;20505;-84
2022/07/17 02:25:58;;;;;;;5.57;4.30;;;;;;;;;;10387886;28;20488;-83
2022/07/17 02:31:00;;;;;;;4.60;4.10;;;;;;;;;;10380909;28;20456;-85
2022/07/17 02:36:02;;;;;;;4.10;3.70;;;;;;;;;;10390181;28;20591;-84
2022/07/17 02:41:05;;;;;;;4.50;3.58;;;;;;;;;;10383421;28;20516;-86
2022/07/17 02:46:07;;;;;;;4.82;3.85;;;;;;;;;;10384111;28;20407;-86
2022/07/17 02:51:09;;;;;;;3.87;3.50;;;;;;;;;;10386691;28;20504;-85
2022/07/17 02:56:12;;;;;;;4.10;3.70;;;;;;;;;;10383520;28;20440;-85
2022/07/17 03:01:14;;;;;;;5.17;3.60;;;;;;;;;;10382159;28;20517;-85
2022/07/17 03:06:16;;;;;;;4.30;3.90;;;;;;;;;;10381648;28;21025;-85
2022/07/17 03:11:19;;;;;;;6.45;3.63;;;;;;;;;;10383553;28;20409;-85
2022/07/17 03:16:21;;;;;;;4.22;3.50;;;;;;;;;;10385606;28;20473;-85
2022/07/17 03:21:22;;;;;;;3.92;3.60;;;;;;;;;;10387066;28;20417;-84
2022/07/17 03:26:25;;;;;;;3.83;3.47;;;;;;;;;;10380482;28;20423;-85
2022/07/17 03:31:27;;;;;;;4.97;3.70;;;;;;;;;;10386067;28;20484;-85
2022/07/17 03:36:29;;;;;;;4.43;3.58;;;;;;;;;;10385029;28;20405;-84
2022/07/17 03:41:32;;;;;;;4.20;3.80;;;;;;;;;;10380125;28;20516;-85
2022/07/17 03:46:34;;;;;;;5.18;3.67;;;;;;;;;;10379285;28;20413;-85
2022/07/17 03:51:36;;;;;;;4.65;3.50;;;;;;;;;;10375844;28;20516;-84
2022/07/17 03:56:39;;;;;;;3.97;3.67;;;;;;;;;;10381416;28;20481;-85
2022/07/17 04:01:41;;;;;;;4.30;3.88;;;;;;;;;;10377657;28;20511;-85
2022/07/17 04:06:43;;;;;;;4.68;3.75;;;;;;;;;;10382973;28;20504;-85
2022/07/17 04:11:46;;;;;;;4.80;4.00;;;;;;;;;;10392489;28;20400;-84
2022/07/17 04:16:48;;;;;;;5.13;3.97;;;;;;;;;;10394949;28;20488;-85
2022/07/17 04:21:50;;;;;;;4.40;4.00;;;;;;;;;;10393265;28;20425;-84
2022/07/17 04:26:53;;;;;;;4.18;3.80;;;;;;;;;;10396184;28;20909;-85
2022/07/17 04:31:55;;;;;;;6.03;4.13;;;;;;;;;;10393815;28;20409;-84
2022/07/17 04:36:57;;;;;;;5.40;3.90;;;;;;;;;;10397006;28;20440;-84
2022/07/17 04:42:00;;;;;;;4.30;3.70;;;;;;;;;;10393869;28;20524;-84
2022/07/17 04:47:02;;;;;;;4.95;3.65;;;;;;;;;;10393264;28;20738;-85
2022/07/17 04:52:04;;;;;;;5.28;4.20;;;;;;;;;;10393981;28;20995;-85
2022/07/17 04:57:07;;;;;;;5.88;3.95;;;;;;;;;;10402648;28;20520;-84
2022/07/17 05:02:09;;;;;;;5.37;4.07;;;;;;;;;;10400860;28;20791;-83
2022/07/17 05:07:10;;;;;;;5.20;4.32;;;;;;;;;;10398793;28;20595;-84
2022/07/17 05:12:14;;;;;;;3.92;3.53;;;;;;;;;;10399550;28;20413;-85
2022/07/17 05:17:16;;;;;;;5.28;3.80;;;;;;;;;;10399949;28;20566;-85
2022/07/17 05:22:17;;;;;;;6.30;3.83;;;;;;;;;;10403628;28;20425;-85
2022/07/17 05:27:21;;;;;;;4.63;3.70;;;;;;;;;;10397039;28;20409;-85
2022/07/17 05:32:23;;;;;;;5.13;3.60;;;;;;;;;;10398352;28;21348;-84
2022/07/17 05:37:25;;;;;;;3.78;3.42;;;;;;;;;;10398297;28;20422;-84
2022/07/17 05:42:28;;;;;;;4.40;3.30;;;;;;;;;;10427518;28;20424;-84
2022/07/17 05:47:30;;;;;;;4.40;3.42;;;;;;;;;;10432729;28;20430;-84
2022/07/17 05:52:32;;;;;;;4.20;3.40;;;;;;;;;;10427107;28;20971;-84
2022/07/17 05:57:35;;;;;;;5.43;3.40;;;;;;;;;;10425780;28;20823;-85
2022/07/17 06:02:37;;;;;;;3.53;3.23;;;;;;;;;;10419452;28;20520;-86
2022/07/17 06:07:39;;;;;;;3.93;3.10;;;;;;;;;;10419732;28;20436;-85
2022/07/17 06:12:42;;;;;;;4.88;3.42;;;;;;;;;;10423769;28;20486;-84
2022/07/17 06:17:44;;;;;;;4.70;3.30;;;;;;;;;;10409895;28;20410;-84
2022/07/17 06:22:46;;;;;;;3.50;3.20;;;;;;;;;;10408481;28;20722;-86
2022/07/17 06:27:49;;;;;;;3.72;3.35;;;;;;;;;;10416861;28;20523;-85
2022/07/17 06:32:51;;;;;;;5.17;3.00;;;;;;;;;;10403786;28;20970;-85
2022/07/17 06:37:53;;;;;;;5.78;3.40;;;;;;;;;;10411773;28;20485;-84
2022/07/17 06:42:56;;;;;;;5.60;3.10;;;;;;;;;;10422702;28;20886;-84
2022/07/17 06:47:58;;;;;;;3.97;2.97;;;;;;;;;;10410965;28;20395;-84
2022/07/17 06:52:59;;;;;;;3.00;2.70;;;;;;;;;;10416100;28;20526;-83
2022/07/17 06:58:03;;;;;;;3.75;3.35;;;;;;;;;;10416074;28;20413;-85
2022/07/17 07:03:05;;;;;;;3.33;3.03;;;;;;;;;;10420413;28;20479;-85
2022/07/17 07:08:06;;;;;;;5.13;3.20;;;;;;;;;;10424476;28;20406;-84
2022/07/17 07:13:10;;;;;;;4.13;2.97;;;;;;;;;;10424482;28;20950;-84
2022/07/17 07:18:11;;;;;;;4.07;2.70;;;;;;;;;;10413235;28;20409;-85
2022/07/17 07:23:13;;;;;;;3.80;2.72;;;;;;;;;;10420071;28;20507;-85
2022/07/17 07:28:16;;;;;;;3.33;2.80;;;;;;;;;;10419035;28;20408;-85
2022/07/17 07:33:18;;;;;;;3.65;2.80;;;;;;;;;;10426508;28;20398;-85
2022/07/17 07:38:20;;;;;;;3.23;2.80;;;;;;;;;;10421712;28;20901;-85
2022/07/17 07:43:23;;;;;;;4.00;2.80;;;;;;;;;;10409476;28;20441;-85
2022/07/17 07:48:25;;;;;;;2.70;2.50;;;;;;;;;;10420534;28;20504;-93
2022/07/17 07:53:27;;;;;;;4.93;2.92;;;;;;;;;;10418107;28;20397;-85
2022/07/17 07:58:30;;;;;;;2.95;2.70;;;;;;;;;;10416105;28;20450;-86
2022/07/17 08:03:32;;;;;;;3.67;2.80;;;;;;;;;;10395817;28;20494;-85
2022/07/17 08:08:34;;;;;;;3.20;2.45;;;;;;;;;;10391220;28;20496;-86
2022/07/17 08:13:37;;;;;;;3.47;2.60;;;;;;;;;;10392034;28;20870;-85
2022/07/17 08:18:39;;;;;;;3.17;2.50;;;;;;;;;;10388278;28;20496;-86
2022/07/17 08:23:41;;;;;;;3.38;2.45;;;;;;;;;;10386601;28;20425;-85
2022/07/17 08:28:44;;;;;;;2.80;2.60;;;;;;;;;;10400433;28;20496;-86
2022/07/17 08:33:47;;;;;;;2.80;2.60;;;;;;;;;;10407907;28;20678;-86
2022/07/17 08:38:49;;;;;;;4.63;2.90;;;;;;;;;;10397662;28;20496;-85
2022/07/17 08:43:54;;;;;;;5.43;2.40;;;;;;;;;;10401945;28;20598;-85
2022/07/17 08:48:59;;;;;;;4.88;2.65;;;;;;;;;;10404293;28;20774;-85
2022/07/17 08:54:01;;;;;;;3.85;2.70;;;;;;;;;;10408637;28;20766;-85
2022/07/17 08:59:04;;;;;;;3.67;2.63;;;;;;;;;;10401757;28;20405;-86
2022/07/17 09:04:07;;;;;;;3.25;2.53;;;;;;;;;;10413109;28;20524;-86
2022/07/17 09:09:11;;;;;;;2.65;2.45;;;;;;;;;;10421047;28;20398;-85
2022/07/17 09:14:15;;;;;;;2.83;2.63;;;;;;;;;;10408112;28;20478;-86
2022/07/17 09:19:28;;;;;;;2.65;2.45;;;;;;;;;;10385424;28;20509;-88
2022/07/17 09:24:39;;;;;;;4.17;2.60;;;;;;;;;;10396542;28;20513;-87
2022/07/17 09:29:54;;;;;;;2.70;2.50;;;;;;;;;;10406035;28;20414;-88
2022/07/17 09:34:58;;;;;;;3.15;2.60;;;;;;;;;;10398147;28;20449;-89
2022/07/17 09:40:01;;;;;;;3.95;2.90;;;;;;;;;;10404291;28;20454;-87
2022/07/17 09:45:06;;;;;;;4.07;3.00;;;;;;;;;;10389789;28;20429;-88
2022/07/17 09:50:09;;;;;;;5.53;2.63;;;;;;;;;;10397901;28;20532;-89
2022/07/17 09:55:11;;;;;;;4.37;2.90;;;;;;;;;;10397000;28;20437;-88
2022/07/17 10:00:16;;;;;;;2.95;2.50;;;;;;;;;;10397650;28;20414;-88
2022/07/17 10:05:18;;;;;;;2.95;2.50;;;;;;;;;;10396666;28;20514;-88
2022/07/17 10:10:20;;;;;;;3.70;2.43;;;;;;;;;;10409996;28;20447;-87
2022/07/17 10:15:27;;;;;;;3.75;2.70;;;;;;;;;;10408222;28;20844;-88
2022/07/17 10:20:29;;;;;;;3.03;2.58;;;;;;;;;;10405346;28;20846;-88
2022/07/17 10:25:30;;;;;;;3.78;2.72;;;;;;;;;;10410671;28;20419;-88
2022/07/17 10:30:34;;;;;;;2.93;2.50;;;;;;;;;;10414596;28;20524;-89
2022/07/17 10:35:46;;;;;;;3.67;2.83;;;;;;;;;;10399262;28;20409;-86
2022/07/17 10:40:48;;;;;;;3.05;2.78;;;;;;;;;;10406965;28;20412;-88
2022/07/17 10:45:51;;;;;;;2.70;2.30;;;;;;;;;;10414649;28;20426;-88
2022/07/17 10:50:55;;;;;;;3.00;2.50;;;;;;;;;;10417155;28;20950;-87
2022/07/17 10:55:58;;;;;;;3.20;2.63;;;;;;;;;;10416689;28;20953;-87
2022/07/17 11:01:05;;;;;;;2.70;2.50;;;;;;;;;;10422841;28;20479;-87
2022/07/17 11:06:09;;;;;;;3.57;2.60;;;;;;;;;;10412424;28;20988;-87
2022/07/17 11:11:11;;;;;;;4.00;2.65;;;;;;;;;;10418775;28;20406;-86
2022/07/17 11:16:27;;;;;;;2.60;2.40;;;;;;;;;;10414426;28;20494;-87
2022/07/17 11:21:29;;;;;;;3.00;2.67;;;;;;;;;;10411597;28;20893;-87
2022/07/17 11:26:31;;;;;;;3.15;2.60;;;;;;;;;;10428738;22;20423;-89
2022/07/17 11:31:35;;;;;;;2.90;2.60;;;;;;;;;;10378273;28;20441;-87
2022/07/17 11:36:41;;;;;;;2.83;2.60;;;;;;;;;;10372553;28;20408;-89
2022/07/17 11:41:44;;;;;;;2.83;2.63;;;;;;;;;;10370328;28;20414;-89
2022/07/17 11:46:50;;;;;;;3.60;2.70;;;;;;;;;;10382265;28;20528;-91
2022/07/17 11:51:52;;;;;;;3.83;2.60;;;;;;;;;;10373236;28;20415;-89
2022/07/17 11:56:57;;;;;;;2.67;2.47;;;;;;;;;;10378178;28;20492;-91
2022/07/17 12:02:09;;;;;;;3.93;2.80;;;;;;;;;;10375434;28;20428;-89
2022/07/17 12:07:11;;;;;;;2.88;2.67;;;;;;;;;;10376767;28;20501;-90
2022/07/17 12:12:20;;;;;;;2.75;2.53;;;;;;;;;;10378108;28;20403;-90
2022/07/17 12:17:23;;;;;;;2.90;2.60;;;;;;;;;;10375022;28;20486;-88
2022/07/17 12:22:28;;;;;;;4.53;2.85;;;;;;;;;;10374193;28;20417;-89
2022/07/17 12:27:30;;;;;;;2.80;2.60;;;;;;;;;;10369744;28;20942;-90
2022/07/17 12:32:41;;;;;;;2.97;2.70;;;;;;;;;;10381859;28;20484;-89
2022/07/17 12:37:43;;;;;;;3.25;2.80;;;;;;;;;;10370445;28;20439;-89
2022/07/17 12:42:45;;;;;;;3.20;2.60;;;;;;;;;;10378206;28;20461;-89
2022/07/17 12:47:48;;;;;;;3.20;2.90;;;;;;;;;;10380316;28;20639;-89
2022/07/17 12:52:50;;;;;;;3.73;2.90;;;;;;;;;;10374995;28;20459;-92
2022/07/17 12:57:52;;;;;;;2.90;2.60;;;;;;;;;;10367056;28;20438;-88
2022/07/17 13:02:55;;;;;;;3.35;2.83;;;;;;;;;;10352274;28;20511;-88
2022/07/17 13:07:57;;;;;;;4.53;2.70;;;;;;;;;;10357471;28;20500;-88
2022/07/17 13:12:59;;;;;;;2.72;2.53;;;;;;;;;;10364524;28;20526;-89
2022/07/17 13:18:02;;;;;;;3.00;2.70;;;;;;;;;;10350883;28;20464;-90
2022/07/17 13:23:04;;;;;;;3.03;2.83;;;;;;;;;;10385943;28;20529;-89
2022/07/17 13:28:06;;;;;;;3.58;2.85;;;;;;;;;;10373815;28;20563;-88
2022/07/17 13:33:09;;;;;;;3.30;2.80;;;;;;;;;;10371916;28;20421;-88
2022/07/17 13:49:29;;;;;;;2.70;2.50;;;;;;;;;;10538956;28;20400;-96
2022/07/17 13:54:32;;;;;;;4.38;2.83;;;;;;;;;;10530250;28;20811;-90
2022/07/17 13:59:34;;;;;;;2.60;2.40;;;;;;;;;;10465112;28;21813;-91
2022/07/17 14:04:39;;;;;;;3.17;2.67;;;;;;;;;;10473896;28;20450;-94
2022/07/17 14:09:41;;;;;;;3.30;2.60;;;;;;;;;;10470490;28;20423;-88
2022/07/17 14:14:43;;;;;;;2.97;2.77;;;;;;;;;;10455261;28;20478;-89
2022/07/17 14:19:47;;;;;;;3.80;2.80;;;;;;;;;;10465958;28;20466;-88
2022/07/17 14:24:49;;;;;;;3.03;2.60;;;;;;;;;;10444910;28;20426;-89
2022/07/17 14:29:51;;;;;;;3.77;2.50;;;;;;;;;;10460546;28;20390;-90
2022/07/17 14:34:54;;;;;;;3.05;2.80;;;;;;;;;;10469750;28;20422;-91
2022/07/17 14:39:56;;;;;;;2.80;2.60;;;;;;;;;;10465847;28;20435;-90
2022/07/17 14:44:58;;;;;;;3.00;2.70;;;;;;;;;;10471612;28;20411;-88
2022/07/17 14:50:01;;;;;;;2.85;2.55;;;;;;;;;;10460333;28;20827;-88
2022/07/17 14:55:04;;;;;;;3.35;2.63;;;;;;;;;;10467880;28;20405;-91
2022/07/17 15:00:07;;;;;;;2.95;2.75;;;;;;;;;;10465923;28;20492;-88
2022/07/17 15:05:10;;;;;;;2.93;2.73;;;;;;;;;;10437578;28;20445;-88
2022/07/17 15:10:12;;;;;;;2.95;2.65;;;;;;;;;;10425869;28;20496;-87
2022/07/17 15:15:14;;;;;;;3.92;2.80;;;;;;;;;;10421144;28;20492;-88
2022/07/17 15:20:17;;;;;;;2.75;2.55;;;;;;;;;;10457411;28;20400;-88
2022/07/17 15:25:19;;;;;;;3.05;2.72;;;;;;;;;;10484701;28;20512;-89
2022/07/17 15:30:21;;;;;;;2.80;2.60;;;;;;;;;;10460301;28;20716;-91
2022/07/17 15:35:26;;;;;;;3.05;2.67;;;;;;;;;;10464152;28;20425;-90
2022/07/17 15:40:28;;;;;;;3.00;2.60;;;;;;;;;;10487878;28;20410;-91
2022/07/17 15:45:32;;;;;;;3.17;2.87;;;;;;;;;;10478859;28;20501;-92
2022/07/17 15:50:37;;;;;;;4.55;3.10;;;;;;;;;;10486574;28;20435;-91
2022/07/17 15:55:39;;;;;;;2.97;2.65;;;;;;;;;;10482584;28;20505;-92
2022/07/17 16:00:41;;;;;;;3.33;2.97;;;;;;;;;;10491413;28;20492;-92
2022/07/17 16:05:44;;;;;;;3.63;3.33;;;;;;;;;;10488912;28;20824;-92
2022/07/17 16:10:46;;;;;;;4.18;3.70;;;;;;;;;;10491710;28;20429;-93
2022/07/17 16:15:49;;;;;;;4.18;3.78;;;;;;;;;;10483480;28;21917;-92
2022/07/17 16:20:52;;;;;;;4.32;3.83;;;;;;;;;;10472311;28;20405;-92
2022/07/17 16:25:54;;;;;;;7.65;4.20;;;;;;;;;;10460708;28;20414;-90
2022/07/17 16:30:56;;;;;;;4.75;3.90;;;;;;;;;;10480280;28;20408;-91
2022/07/17 16:36:01;;;;;;;5.30;4.30;;;;;;;;;;10467608;28;21635;-90
2022/07/17 16:41:03;;;;;;;4.40;4.00;;;;;;;;;;10478472;28;20443;-92
2022/07/17 16:46:05;;;;;;;4.80;4.25;;;;;;;;;;10484616;28;20493;-91
2022/07/17 16:51:09;;;;;;;5.70;4.80;;;;;;;;;;10494662;28;20449;-88
2022/07/17 16:56:11;;;;;;;6.13;5.10;;;;;;;;;;10470563;28;21218;-89
2022/07/17 17:01:12;;;;;;;5.95;5.35;;;;;;;;;;10473132;28;20482;-88
2022/07/17 17:06:16;;;;;;;6.43;5.70;;;;;;;;;;10475601;28;20469;-90
2022/07/17 17:11:18;;;;;;;6.45;5.75;;;;;;;;;;10502891;28;20873;-89
2022/07/17 17:16:20;;;;;;;6.70;5.93;;;;;;;;;;10496461;28;20864;-89
2022/07/17 17:21:25;;;;;;;6.60;6.00;;;;;;;;;;10496689;28;20471;-88
2022/07/17 17:31:37;;;;;;;8.07;6.75;;;;;;;;;;12548858;22;20416;-91
2022/07/17 17:36:40;;;;;;;8.82;6.60;;;;;;;;;;10533450;28;20441;-78
2022/07/17 17:41:57;;;;;;;6.75;6.15;;;;;;;;;;10552324;28;20394;-96
2022/07/17 17:46:58;;;;;;;6.57;5.88;;;;;;;;;;10545321;28;20394;-96
2022/07/17 17:52:05;;;;;;;7.32;6.32;;;;;;;;;;10521524;28;20495;-96
2022/07/17 17:57:07;;;;;;;7.17;6.30;;;;;;;;;;10529659;28;20429;-96
2022/07/17 18:02:11;;;;;;;6.60;6.00;;;;;;;;;;10531878;28;20814;-96
2022/07/17 18:07:15;;;;;;;7.70;6.30;;;;;;;;;;10526328;28;20434;-96
2022/07/17 18:17:48;;;;;;;6.60;5.95;;;;;;;;;;10546999;28;20421;-96
2022/07/17 18:22:52;;;;;;;8.25;6.35;;;;;;;;;;10536368;28;20405;-86
2022/07/17 18:27:54;;;;;;;8.88;6.47;;;;;;;;;;10508487;28;20969;-87
2022/07/17 18:32:56;;;;;;;6.43;5.75;;;;;;;;;;10498427;28;20462;-86
2022/07/17 18:37:59;;;;;;;6.13;5.53;;;;;;;;;;10485615;28;20523;-87
2022/07/17 18:43:01;;;;;;;6.57;5.87;;;;;;;;;;10487481;28;20433;-85
2022/07/17 18:48:04;;;;;;;6.55;5.82;;;;;;;;;;10485769;28;20406;-88
2022/07/17 18:53:08;;;;;;;6.30;5.70;;;;;;;;;;10483819;28;20440;-86
2022/07/17 18:58:10;;;;;;;7.30;5.80;;;;;;;;;;10492839;28;20856;-87
2022/07/17 19:03:12;;;;;;;6.53;5.43;;;;;;;;;;10491413;28;20410;-86
2022/07/17 19:08:15;;;;;;;9.55;5.45;;;;;;;;;;10490699;28;20529;-87
2022/07/17 19:13:17;;;;;;;6.05;5.05;;;;;;;;;;10488703;28;20402;-86
2022/07/17 19:18:19;;;;;;;6.97;5.73;;;;;;;;;;10496196;28;21170;-86
2022/07/17 19:23:23;;;;;;;5.60;4.93;;;;;;;;;;10522147;28;21042;-86
2022/07/17 19:28:25;;;;;;;6.37;5.10;;;;;;;;;;10511998;28;20416;-86
2022/07/17 19:33:27;;;;;;;5.83;5.30;;;;;;;;;;10510840;28;20737;-86
2022/07/17 19:38:33;;;;;;;7.38;5.18;;;;;;;;;;10513922;28;21011;-86
2022/07/17 19:43:35;;;;;;;6.30;5.17;;;;;;;;;;10511169;28;20416;-86
2022/07/17 19:48:36;;;;;;;5.55;4.88;;;;;;;;;;10520163;28;20521;-88
2022/07/17 19:53:40;;;;;;;7.37;5.27;;;;;;;;;;10487899;28;20502;-86
2022/07/17 19:58:42;;;;;;;5.65;5.03;;;;;;;;;;10490555;28;20416;-86
2022/07/17 20:03:44;;;;;;;6.28;5.30;;;;;;;;;;10485891;28;21028;-84
2022/07/17 20:08:48;;;;;;;6.80;5.40;;;;;;;;;;10490582;28;20406;-86
2022/07/17 20:13:54;;;;;;;7.05;5.40;;;;;;;;;;10485017;28;20432;-87
2022/07/17 20:18:55;;;;;;;5.80;5.20;;;;;;;;;;10494366;28;20413;-87
2022/07/17 20:23:59;;;;;;;8.20;5.40;;;;;;;;;;10489515;28;20487;-86
2022/07/17 20:29:02;;;;;;;9.07;5.93;;;;;;;;;;10495353;28;20492;-85
2022/07/17 20:34:04;;;;;;;6.75;5.88;;;;;;;;;;10490558;28;20782;-86
2022/07/17 20:39:08;;;;;;;7.03;6.18;;;;;;;;;;10501949;28;20443;-87
2022/07/17 20:44:10;;;;;;;11.03;6.90;;;;;;;;;;10506946;28;20482;-86
2022/07/17 20:49:12;;;;;;;8.63;7.13;;;;;;;;;;10501425;28;20445;-86
2022/07/17 20:54:16;;;;;;;9.07;7.57;;;;;;;;;;10497630;28;20429;-87
2022/07/17 20:59:18;;;;;;;10.38;8.23;;;;;;;;;;10490775;28;20410;-87
2022/07/17 21:04:19;;;;;;;10.02;8.30;;;;;;;;;;10492485;28;20414;-86
2022/07/17 21:09:23;;;;;;;9.50;8.13;;;;;;;;;;10497681;28;20528;-86
2022/07/17 21:14:25;;;;;;;10.70;8.60;;;;;;;;;;10498122;28;20404;-87
2022/07/17 21:19:27;;;;;;;8.80;7.82;;;;;;;;;;10492261;28;20532;-86
2022/07/17 21:24:30;;;;;;;9.60;8.63;;;;;;;;;;10487841;28;20521;-88
2022/07/17 21:29:32;;;;;;;10.18;9.00;;;;;;;;;;10488781;28;20414;-87
2022/07/17 21:34:34;;;;;;;10.10;8.93;;;;;;;;;;10490724;28;20428;-87
2022/07/17 21:39:38;;;;;;;10.85;9.10;;;;;;;;;;10491438;28;20441;-86
2022/07/17 21:44:40;;;;;;;10.68;9.57;;;;;;;;;;10487775;28;20500;-88
2022/07/17 21:49:41;;;;;;;11.57;10.15;;;;;;;;;;10488796;28;20412;-88
2022/07/17 21:54:45;;;;;;;11.50;10.40;;;;;;;;;;10492786;28;20417;-85
2022/07/17 21:59:47;;;;;;;10.63;9.37;;;;;;;;;;10490371;28;20431;-87
2022/07/17 22:04:49;;;;;;;12.25;10.48;;;;;;;;;;10495760;28;20746;-85
2022/07/17 22:09:53;;;;;;;12.17;10.87;;;;;;;;;;10484573;28;20917;-86
2022/07/17 22:14:55;;;;;;;11.45;9.75;;;;;;;;;;10479932;28;20445;-86
2022/07/17 22:19:57;;;;;;;10.52;8.88;;;;;;;;;;10491440;28;20854;-87
2022/07/17 22:25:01;;;;;;;9.57;8.55;;;;;;;;;;10495158;28;20518;-85
2022/07/17 22:30:04;;;;;;;8.57;7.67;;;;;;;;;;10491704;28;20416;-87
2022/07/17 22:35:07;;;;;;;7.47;6.73;;;;;;;;;;10494901;28;20511;-86
2022/07/17 22:40:11;;;;;;;6.72;5.90;;;;;;;;;;10498030;28;20914;-85
2022/07/17 22:45:13;;;;;;;5.55;4.60;;;;;;;;;;10499139;28;20901;-87
2022/07/17 22:50:14;;;;;;;6.70;4.47;;;;;;;;;;10497917;28;20501;-85
2022/07/17 22:55:18;;;;;;;5.50;3.90;;;;;;;;;;10493337;28;20428;-87
2022/07/17 23:00:20;;;;;;;4.43;3.73;;;;;;;;;;10494789;28;20843;-87
2022/07/17 23:05:23;;;;;;;5.35;4.00;;;;;;;;;;10496451;28;20433;-86
2022/07/17 23:10:27;;;;;;;4.30;3.90;;;;;;;;;;10507183;28;20398;-86
2022/07/17 23:15:29;;;;;;;4.95;4.10;;;;;;;;;;10506576;28;20457;-84
2022/07/17 23:20:30;;;;;;;4.30;3.90;;;;;;;;;;10504786;28;20488;-86
2022/07/17 23:25:34;;;;;;;3.93;3.53;;;;;;;;;;10504888;28;20503;-86
2022/07/17 23:30:38;;;;;;;4.10;3.70;;;;;;;;;;10505928;28;20602;-86
2022/07/17 23:35:40;;;;;;;4.33;3.93;;;;;;;;;;10426733;22;20431;-87
2022/07/17 23:40:43;;;;;;;5.37;4.07;;;;;;;;;;10351560;28;20873;-87
2022/07/17 23:45:45;;;;;;;4.25;3.85;;;;;;;;;;10355471;28;20505;-86
2022/07/17 23:50:47;;;;;;;5.50;4.30;;;;;;;;;;10345926;28;20495;-86
2022/07/17 23:55:50;;;;;;;5.30;4.80;;;;;;;;;;10344859;28;20440;-86
